createdAt,value
2018-09-04T00:01:33.087Z,65.05
2018-09-04T00:04:09.758Z,65.33
2018-09-04T00:06:47.960Z,65.68
2018-09-04T00:09:21.864Z,64.12
2018-09-04T00:14:46.173Z,64.38
2018-09-04T00:17:29.027Z,64.62
2018-09-04T00:20:06.642Z,64.03
2018-09-04T00:22:46.862Z,63.09
2018-09-04T00:25:26.640Z,63.40
2018-09-04T00:28:06.534Z,63.64
2018-09-04T00:30:48.802Z,64.19
2018-09-04T00:33:19.024Z,64.92
2018-09-04T00:35:49.456Z,64.89
2018-09-04T00:38:20.977Z,65.05
2018-09-04T00:40:52.681Z,65.40
2018-09-04T00:43:23.381Z,65.55
2018-09-04T00:45:58.347Z,65.64
2018-09-04T00:48:29.268Z,65.40
2018-09-04T00:51:01.348Z,65.05
2018-09-04T00:53:31.058Z,65.63
2018-09-04T00:56:02.875Z,65.05
2018-09-04T00:58:33.542Z,65.06
2018-09-04T01:01:04.744Z,64.50
2018-09-04T01:03:35.632Z,65.44
2018-09-04T01:06:07.924Z,64.78
2018-09-04T01:08:41.921Z,65.15
2018-09-04T01:11:12.468Z,64.99
2018-09-04T01:13:48.945Z,65.37
2018-09-04T01:16:23.900Z,65.48
2018-09-04T01:18:56.149Z,66.01
2018-09-04T01:21:27.263Z,66.08
2018-09-04T01:23:58.575Z,65.97
2018-09-04T01:26:28.611Z,66.42
2018-09-04T01:28:58.646Z,66.28
2018-09-04T01:31:46.259Z,65.84
2018-09-04T01:34:29.318Z,65.98
2018-09-04T01:37:04.782Z,65.85
2018-09-04T01:39:37.999Z,65.95
2018-09-04T01:42:21.233Z,66.11
2018-09-04T01:45:02.436Z,65.51
2018-09-04T01:47:37.703Z,66.36
2018-09-04T01:50:16.135Z,66.37
2018-09-04T01:52:53.311Z,65.73
2018-09-04T01:55:34.645Z,65.05
2018-09-04T01:58:21.012Z,65.55
2018-09-04T02:00:55.250Z,64.99
2018-09-04T02:03:27.177Z,65.33
2018-09-04T02:06:06.333Z,65.31
2018-09-04T02:08:43.173Z,66.84
2018-09-04T02:11:19.298Z,67.04
2018-09-04T02:13:55.536Z,67.31
2018-09-04T02:16:38.877Z,67.27
2018-09-04T02:19:15.232Z,66.58
2018-09-04T02:21:50.156Z,66.42
2018-09-04T02:24:30.408Z,66.56
2018-09-04T02:27:09.965Z,65.88
2018-09-04T02:29:49.162Z,65.03
2018-09-04T02:32:30.280Z,65.00
2018-09-04T02:35:07.890Z,65.70
2018-09-04T02:37:47.048Z,67.07
2018-09-04T02:43:10.653Z,66.31
2018-09-04T02:45:46.633Z,66.42
2018-09-04T02:48:28.503Z,66.86
2018-09-04T02:51:08.446Z,65.33
2018-09-04T02:53:46.664Z,66.51
2018-09-04T02:56:25.362Z,66.64
2018-09-04T02:59:09.896Z,64.29
2018-09-04T03:01:51.111Z,64.21
2018-09-04T03:04:38.659Z,64.81
2018-09-04T03:07:16.113Z,65.84
2018-09-04T03:12:31.112Z,63.49
2018-09-04T03:15:06.718Z,63.33
2018-09-04T03:17:47.755Z,62.92
2018-09-04T03:23:00.440Z,61.62
2018-09-04T03:25:29.948Z,61.85
2018-09-04T03:28:00.714Z,61.97
2018-09-04T03:30:32.483Z,62.57
2018-09-04T03:33:04.393Z,62.91
2018-09-04T03:35:35.103Z,62.94
2018-09-04T03:38:05.596Z,63.63
2018-09-04T03:40:37.112Z,61.99
2018-09-04T03:43:09.704Z,61.52
2018-09-04T03:45:41.942Z,61.83
2018-09-04T03:48:15.304Z,62.09
2018-09-04T03:50:48.776Z,62.15
2018-09-04T03:53:20.968Z,61.89
2018-09-04T03:55:52.470Z,61.54
2018-09-04T03:58:25.002Z,61.29
2018-09-04T04:00:56.956Z,61.29
2018-09-04T04:03:29.610Z,60.98
2018-09-04T04:06:01.952Z,60.32
2018-09-04T04:13:45.984Z,61.13
2018-09-04T04:16:21.035Z,60.70
2018-09-04T04:18:54.436Z,61.27
2018-09-04T04:21:27.616Z,61.58
2018-09-04T04:26:40.230Z,60.30
2018-09-04T04:29:14.236Z,60.37
2018-09-04T04:31:45.381Z,60.77
2018-09-04T04:34:19.276Z,60.30
2018-09-04T04:36:49.256Z,60.14
2018-09-04T04:39:21.075Z,59.81
2018-09-04T04:41:54.507Z,59.64
2018-09-04T04:44:27.845Z,58.25
2018-09-04T04:47:02.795Z,58.29
2018-09-04T04:49:35.815Z,58.18
2018-09-04T04:52:11.962Z,58.37
2018-09-04T04:54:42.861Z,58.80
2018-09-04T04:57:15.354Z,58.55
2018-09-04T04:59:47.848Z,59.01
2018-09-04T05:02:20.362Z,58.67
2018-09-04T05:04:54.492Z,58.42
2018-09-04T05:10:05.925Z,57.78
2018-09-04T05:12:37.339Z,58.45
2018-09-04T05:15:09.708Z,57.75
2018-09-04T05:17:40.664Z,56.94
2018-09-04T05:20:16.823Z,57.66
2018-09-04T05:22:50.395Z,57.82
2018-09-04T05:25:22.384Z,57.17
2018-09-04T05:27:53.177Z,57.49
2018-09-04T05:30:31.963Z,58.78
2018-09-04T05:33:09.020Z,59.11
2018-09-04T05:35:47.842Z,57.98
2018-09-04T05:38:22.749Z,58.58
2018-09-04T05:40:56.490Z,60.38
2018-09-04T05:43:41.861Z,60.60
2018-09-04T05:46:18.156Z,60.07
2018-09-04T05:48:53.678Z,58.26
2018-09-04T05:51:25.609Z,58.37
2018-09-04T05:53:59.184Z,58.50
2018-09-04T05:56:32.584Z,59.54
2018-09-04T05:59:04.958Z,58.87
2018-09-04T06:01:46.882Z,60.05
2018-09-04T06:04:25.409Z,60.42
2018-09-04T06:07:01.426Z,59.93
2018-09-04T06:09:40.161Z,60.64
2018-09-04T06:12:14.662Z,59.31
2018-09-04T06:14:45.902Z,59.69
2018-09-04T06:17:23.540Z,58.76
2018-09-04T06:22:49.034Z,58.98
2018-09-04T06:25:28.772Z,58.24
2018-09-04T06:28:11.778Z,58.00
2018-09-04T06:30:48.079Z,57.12
2018-09-04T06:33:28.794Z,57.96
2018-09-04T06:36:10.718Z,57.85
2018-09-04T06:38:50.347Z,59.13
2018-09-04T06:41:28.269Z,59.19
2018-09-04T06:44:03.754Z,58.61
2018-09-04T06:46:42.039Z,58.31
2018-09-04T06:49:24.762Z,58.16
2018-09-04T06:52:07.756Z,56.31
2018-09-04T06:54:42.739Z,56.28
2018-09-04T06:57:19.410Z,56.95
2018-09-04T06:59:55.550Z,55.79
2018-09-04T07:02:42.383Z,57.00
2018-09-04T07:05:20.836Z,55.41
2018-09-04T07:07:57.535Z,54.90
2018-09-04T07:10:35.623Z,54.74
2018-09-04T07:13:16.642Z,54.96
2018-09-04T07:15:54.635Z,56.11
2018-09-04T07:18:32.147Z,57.50
2018-09-04T07:21:11.366Z,56.94
2018-09-04T07:26:32.242Z,54.78
2018-09-04T07:29:09.247Z,53.28
2018-09-04T07:31:46.082Z,54.14
2018-09-04T07:34:18.690Z,54.66
2018-09-04T07:36:56.784Z,55.37
2018-09-04T07:39:32.251Z,54.74
2018-09-04T07:42:09.658Z,53.76
2018-09-04T07:44:43.885Z,54.25
2018-09-04T07:47:20.597Z,54.49
2018-09-04T07:49:58.414Z,55.29
2018-09-04T07:52:38.506Z,55.06
2018-09-04T07:55:14.761Z,55.48
2018-09-04T08:00:37.416Z,55.04
2018-09-04T08:03:10.684Z,55.40
2018-09-04T08:05:46.303Z,55.14
2018-09-04T08:08:24.527Z,55.26
2018-09-04T08:11:01.796Z,56.06
2018-09-04T08:13:41.536Z,54.80
2018-09-04T08:16:27.620Z,54.61
2018-09-04T08:19:06.387Z,55.08
2018-09-04T08:21:45.459Z,54.62
2018-09-04T08:24:22.474Z,55.34
2018-09-04T08:26:57.940Z,54.60
2018-09-04T08:29:33.101Z,54.78
2018-09-04T08:32:08.731Z,54.77
2018-09-04T08:34:44.152Z,55.39
2018-09-04T08:37:20.174Z,54.76
2018-09-04T08:40:06.736Z,55.14
2018-09-04T08:42:45.232Z,53.79
2018-09-04T08:45:23.589Z,54.20
2018-09-04T08:48:01.753Z,54.43
2018-09-04T08:50:34.815Z,53.33
2018-09-04T08:53:13.488Z,53.82
2018-09-04T08:55:52.929Z,53.85
2018-09-04T08:58:29.540Z,53.30
2018-09-04T09:01:04.583Z,54.09
2018-09-04T09:03:41.614Z,54.34
2018-09-04T09:06:20.714Z,55.71
2018-09-04T09:08:56.916Z,53.59
2018-09-04T09:11:33.743Z,55.09
2018-09-04T09:14:12.968Z,55.33
2018-09-04T09:16:48.853Z,55.96
2018-09-04T09:19:25.691Z,55.56
2018-09-04T09:22:03.674Z,56.27
2018-09-04T09:24:40.496Z,54.73
2018-09-04T09:27:15.532Z,56.22
2018-09-04T09:29:48.323Z,54.40
2018-09-04T09:32:25.555Z,55.38
2018-09-04T09:35:07.347Z,55.27
2018-09-04T09:37:47.349Z,55.97
2018-09-04T09:40:26.829Z,57.21
2018-09-04T09:43:09.281Z,57.13
2018-09-04T09:45:47.684Z,56.73
2018-09-04T09:48:30.645Z,54.93
2018-09-04T09:51:07.078Z,54.75
2018-09-04T09:53:48.590Z,55.76
2018-09-04T09:56:32.935Z,55.57
2018-09-04T10:04:19.534Z,55.68
2018-09-04T10:07:05.720Z,54.37
2018-09-04T10:09:47.972Z,53.99
2018-09-04T10:17:54.993Z,53.35
2018-09-04T10:20:31.241Z,54.70
2018-09-04T10:23:09.146Z,54.59
2018-09-04T10:25:42.491Z,52.49
2018-09-04T10:28:13.919Z,51.47
2018-09-04T10:30:45.121Z,51.55
2018-09-04T10:33:17.969Z,51.95
2018-09-04T10:35:56.414Z,52.83
2018-09-04T10:38:28.326Z,52.02
2018-09-04T10:41:04.659Z,53.13
2018-09-04T10:43:43.054Z,53.06
2018-09-04T10:46:25.793Z,52.45
2018-09-04T10:49:12.181Z,52.83
2018-09-04T10:51:52.321Z,51.87
2018-09-04T10:54:38.010Z,51.90
2018-09-04T10:57:17.836Z,50.37
2018-09-04T11:02:04.564Z,51.52
2018-09-04T11:07:08.485Z,50.51
2018-09-04T11:09:39.044Z,51.47
2018-09-04T11:14:40.116Z,52.32
2018-09-04T11:17:09.133Z,50.15
2018-09-04T11:19:36.268Z,50.48
2018-09-04T11:22:05.902Z,49.65
2018-09-04T11:24:35.487Z,50.10
2018-09-04T11:27:03.649Z,50.82
2018-09-04T11:29:32.069Z,50.98
2018-09-04T11:32:00.889Z,49.03
2018-09-04T11:34:29.800Z,49.01
2018-09-04T11:36:57.658Z,50.66
2018-09-04T11:39:25.835Z,50.85
2018-09-04T11:41:54.455Z,51.75
2018-09-04T11:44:22.229Z,50.63
2018-09-04T11:49:22.201Z,49.75
2018-09-04T11:51:52.218Z,50.40
2018-09-04T11:54:23.214Z,49.30
2018-09-04T11:56:50.141Z,49.47
2018-09-04T11:59:22.483Z,50.64
2018-09-04T12:01:51.720Z,49.52
2018-09-04T12:04:20.000Z,46.94
2018-09-04T12:06:49.852Z,48.01
2018-09-04T12:09:17.656Z,49.47
2018-09-04T12:11:46.807Z,50.49
2018-09-04T12:16:45.877Z,49.89
2018-09-04T12:19:15.031Z,50.02
2018-09-04T12:21:42.876Z,49.42
2018-09-04T12:24:09.887Z,49.41
2018-09-04T12:26:37.434Z,48.50
2018-09-04T12:29:04.802Z,50.21
2018-09-04T12:31:32.109Z,48.23
2018-09-04T12:34:02.038Z,47.84
2018-09-04T12:36:30.859Z,47.99
2018-09-04T12:38:58.244Z,47.24
2018-09-04T12:41:27.196Z,48.85
2018-09-04T12:43:54.169Z,48.84
2018-09-04T12:46:23.634Z,47.98
2018-09-04T12:48:50.783Z,47.13
2018-09-04T12:51:18.482Z,46.82
2018-09-04T12:53:50.114Z,45.90
2018-09-04T12:56:17.359Z,47.17
2018-09-04T12:58:45.963Z,48.21
2018-09-04T13:01:12.956Z,46.30
2018-09-04T13:03:39.470Z,44.79
2018-09-04T13:06:05.937Z,43.29
2018-09-04T13:08:33.311Z,45.66
2018-09-04T13:11:00.574Z,45.69
2018-09-04T13:13:27.612Z,45.93
2018-09-04T13:15:54.120Z,46.22
2018-09-04T13:18:21.197Z,44.39
2018-09-04T13:20:47.821Z,42.37
2018-09-04T13:23:14.740Z,45.32
2018-09-04T13:25:42.064Z,46.64
2018-09-04T13:28:08.653Z,44.26
2018-09-04T13:30:35.788Z,44.08
2018-09-04T13:33:03.195Z,42.21
2018-09-04T13:35:30.423Z,41.59
2018-09-04T13:37:57.051Z,43.69
2018-09-04T13:40:24.403Z,43.91
2018-09-04T13:42:51.764Z,45.35
2018-09-04T13:45:19.041Z,43.76
2018-09-04T13:47:47.163Z,44.53
2018-09-04T13:50:13.924Z,43.13
2018-09-04T13:52:42.405Z,42.19
2018-09-04T13:55:09.493Z,42.53
2018-09-04T13:57:36.263Z,43.05
2018-09-04T14:00:02.956Z,43.96
2018-09-04T14:02:29.541Z,44.21
2018-09-04T14:04:56.566Z,44.60
2018-09-04T14:07:23.129Z,45.34
2018-09-04T14:09:50.296Z,45.17
2018-09-04T14:12:16.801Z,44.38
2018-09-04T14:14:44.141Z,44.60
2018-09-04T14:17:11.311Z,46.48
2018-09-04T14:19:37.843Z,46.27
2018-09-04T14:24:36.605Z,47.35
2018-09-04T14:27:03.105Z,48.06
2018-09-04T14:31:57.883Z,45.95
2018-09-04T14:34:25.210Z,45.84
2018-09-04T14:36:53.060Z,46.02
2018-09-04T14:39:20.159Z,46.05
2018-09-04T14:41:47.458Z,47.01
2018-09-04T14:44:15.553Z,47.70
2018-09-04T14:46:42.615Z,48.62
2018-09-04T14:49:09.551Z,49.25
2018-09-04T14:51:36.082Z,47.99
2018-09-04T14:54:02.758Z,48.21
2018-09-04T14:56:29.223Z,48.10
2018-09-04T14:58:55.732Z,45.83
2018-09-04T15:01:22.226Z,45.61
2018-09-04T15:03:48.679Z,45.44
2018-09-04T15:06:15.899Z,45.75
2018-09-04T15:08:42.578Z,47.09
2018-09-04T15:11:09.225Z,46.70
2018-09-04T15:13:35.725Z,47.63
2018-09-04T15:16:02.237Z,47.42
2018-09-04T15:18:29.487Z,46.47
2018-09-04T15:20:56.719Z,45.78
2018-09-04T15:23:23.466Z,48.41
2018-09-04T15:25:50.696Z,47.25
2018-09-04T15:28:19.914Z,45.52
2018-09-04T15:30:46.664Z,46.97
2018-09-04T15:33:13.506Z,48.07
2018-09-04T15:35:42.055Z,47.75
2018-09-04T15:38:09.441Z,48.43
2018-09-04T15:40:36.616Z,47.83
2018-09-04T15:43:03.208Z,47.22
2018-09-04T15:45:29.749Z,49.13
2018-09-04T15:47:57.291Z,49.92
2018-09-04T15:50:24.797Z,49.44
2018-09-04T15:52:52.298Z,50.74
2018-09-04T15:55:19.653Z,50.79
2018-09-04T15:57:46.898Z,50.11
2018-09-04T16:00:13.387Z,50.19
2018-09-04T16:02:39.925Z,49.53
2018-09-04T16:05:06.718Z,50.01
2018-09-04T16:07:33.320Z,50.60
2018-09-04T16:10:00.637Z,50.85
2018-09-04T16:12:27.376Z,51.16
2018-09-04T16:14:54.130Z,50.68
2018-09-04T16:17:22.652Z,50.94
2018-09-04T16:19:49.390Z,50.82
2018-09-04T16:22:17.910Z,50.50
2018-09-04T16:24:45.298Z,50.72
2018-09-04T16:27:12.814Z,51.13
2018-09-04T16:29:39.318Z,51.50
2018-09-04T16:32:06.116Z,51.79
2018-09-04T16:34:32.734Z,52.23
2018-09-04T16:36:59.494Z,51.71
2018-09-04T16:39:26.804Z,52.63
2018-09-04T16:41:53.435Z,52.36
2018-09-04T16:44:21.323Z,52.59
2018-09-04T16:46:48.133Z,52.88
2018-09-04T16:49:17.584Z,53.52
2018-09-04T16:51:44.105Z,54.09
2018-09-04T16:54:11.432Z,53.76
2018-09-04T16:56:37.919Z,53.31
2018-09-04T16:59:04.512Z,53.60
2018-09-04T17:01:30.992Z,54.00
2018-09-04T17:03:58.479Z,54.00
2018-09-04T17:06:25.243Z,53.49
2018-09-04T17:08:52.833Z,53.58
2018-09-04T17:11:19.342Z,54.43
2018-09-04T17:13:47.056Z,53.68
2018-09-04T17:16:13.824Z,53.81
2018-09-04T17:18:41.733Z,53.84
2018-09-04T17:21:08.209Z,53.49
2018-09-04T17:23:34.708Z,52.76
2018-09-04T17:26:01.811Z,53.33
2018-09-04T17:31:00.660Z,53.14
2018-09-04T17:33:27.891Z,54.27
2018-09-04T17:35:55.331Z,54.68
2018-09-04T17:38:26.382Z,54.68
2018-09-04T17:40:54.290Z,55.00
2018-09-04T17:43:21.474Z,54.89
2018-09-04T17:45:48.978Z,55.70
2018-09-04T17:48:15.530Z,55.33
2018-09-04T17:50:42.644Z,54.99
2018-09-04T17:53:10.965Z,54.86
2018-09-04T17:55:38.088Z,54.68
2018-09-04T17:58:04.544Z,54.33
2018-09-04T18:00:31.031Z,55.21
2018-09-04T18:02:57.514Z,55.49
2018-09-04T18:05:24.069Z,56.02
2018-09-04T18:07:53.736Z,56.56
2018-09-04T18:10:21.911Z,56.48
2018-09-04T18:12:49.277Z,55.46
2018-09-04T18:15:17.447Z,55.17
2018-09-04T18:17:46.610Z,55.55
2018-09-04T18:20:14.385Z,56.08
2018-09-04T18:27:45.509Z,56.51
2018-09-04T18:30:14.162Z,55.49
2018-09-04T18:32:44.839Z,55.38
2018-09-04T18:35:15.199Z,54.22
2018-09-04T18:37:42.370Z,55.79
2018-09-04T18:42:44.635Z,57.52
2018-09-04T18:45:11.261Z,56.85
2018-09-04T18:47:40.701Z,58.15
2018-09-04T18:50:08.574Z,58.19
2018-09-04T18:52:39.309Z,58.23
2018-09-04T18:55:10.245Z,58.10
2018-09-04T18:57:39.074Z,58.64
2018-09-04T19:00:07.245Z,57.64
2018-09-04T19:02:34.640Z,58.57
2018-09-04T19:05:01.473Z,56.87
2018-09-04T19:07:30.468Z,58.06
2018-09-04T19:09:59.296Z,56.94
2018-09-04T19:12:25.829Z,57.54
2018-09-04T19:14:54.459Z,57.46
2018-09-04T19:17:25.233Z,58.95
2018-09-04T19:19:55.472Z,57.73
2018-09-04T19:22:25.712Z,57.87
2018-09-04T19:24:56.821Z,58.36
2018-09-04T19:27:25.500Z,59.56
2018-09-04T19:29:54.726Z,59.34
2018-09-04T19:32:25.618Z,59.34
2018-09-04T19:34:55.382Z,58.82
2018-09-04T19:37:23.231Z,58.86
2018-09-04T19:39:53.894Z,59.82
2018-09-04T19:42:22.519Z,60.67
2018-09-04T19:44:51.693Z,59.83
2018-09-04T19:52:29.007Z,58.89
2018-09-04T19:54:55.669Z,58.31
2018-09-04T19:57:23.297Z,58.95
2018-09-04T19:59:51.634Z,59.57
2018-09-04T20:02:21.790Z,59.87
2018-09-04T20:04:49.380Z,60.00
2018-09-04T20:07:16.472Z,60.71
2018-09-04T20:12:20.915Z,59.67
2018-09-04T20:14:51.169Z,59.87
2018-09-04T20:17:21.513Z,60.45
2018-09-04T20:19:48.861Z,60.31
2018-09-04T20:24:49.121Z,60.75
2018-09-04T20:29:49.508Z,59.25
2018-09-04T20:32:17.826Z,59.74
2018-09-04T20:34:48.054Z,59.78
2018-09-04T20:37:18.018Z,59.63
2018-09-04T20:39:47.350Z,59.44
2018-09-04T20:42:15.409Z,59.58
2018-09-04T20:47:17.890Z,59.89
2018-09-04T20:52:58.241Z,60.11
2018-09-04T20:55:25.987Z,59.04
2018-09-04T20:57:53.937Z,59.55
2018-09-04T21:00:23.889Z,58.76
2018-09-04T21:02:52.149Z,58.71
2018-09-04T21:05:24.804Z,58.86
2018-09-04T21:07:52.569Z,58.30
2018-09-04T21:12:54.066Z,57.51
2018-09-04T21:15:23.954Z,57.32
2018-09-04T21:17:53.787Z,56.18
2018-09-04T21:20:23.928Z,55.68
2018-09-04T21:22:52.111Z,55.75
2018-09-04T21:25:19.202Z,55.92
2018-09-04T21:27:46.676Z,56.76
2018-09-04T21:30:14.066Z,56.69
2018-09-04T21:32:41.916Z,56.06
2018-09-04T21:35:09.328Z,55.54
2018-09-04T21:37:35.817Z,56.16
2018-09-04T21:40:04.158Z,55.87
2018-09-04T21:42:31.683Z,56.20
2018-09-04T21:44:58.947Z,55.27
2018-09-04T21:47:25.414Z,56.00
2018-09-04T21:49:53.432Z,55.32
2018-09-04T21:52:20.892Z,55.48
2018-09-04T21:54:48.838Z,54.22
2018-09-04T21:57:16.578Z,54.12
2018-09-04T21:59:44.211Z,53.99
2018-09-04T22:02:11.411Z,52.29
2018-09-04T22:04:40.432Z,53.99
2018-09-04T22:07:07.020Z,53.23
2018-09-04T22:09:34.368Z,53.82
2018-09-04T22:14:33.720Z,56.49
2018-09-04T22:17:01.982Z,56.15
2018-09-04T22:19:29.290Z,56.83
2018-09-04T22:21:56.492Z,56.19
2018-09-04T22:24:23.719Z,56.40
2018-09-04T22:26:51.034Z,55.94
2018-09-04T22:29:18.410Z,56.57
2018-09-04T22:31:44.955Z,56.85
2018-09-04T22:34:12.106Z,56.43
2018-09-04T22:36:40.322Z,56.36
2018-09-04T22:39:07.482Z,56.80
2018-09-04T22:41:34.834Z,56.58
2018-09-04T22:44:03.224Z,56.18
2018-09-04T22:46:31.507Z,56.70
2018-09-04T22:48:58.810Z,58.06
2018-09-04T22:51:26.835Z,58.68
2018-09-04T22:53:53.945Z,57.63
2018-09-04T22:56:22.339Z,57.42
2018-09-04T22:58:49.455Z,57.27
2018-09-04T23:01:17.086Z,57.62
2018-09-04T23:03:45.644Z,56.70
2018-09-04T23:06:13.580Z,57.68
2018-09-04T23:08:42.692Z,58.29
2018-09-04T23:11:10.671Z,58.33
2018-09-04T23:13:38.360Z,57.97
2018-09-04T23:16:05.707Z,58.52
2018-09-04T23:18:33.503Z,59.84
2018-09-04T23:21:01.922Z,59.87
2018-09-04T23:23:28.982Z,59.75
2018-09-04T23:25:55.800Z,60.31
2018-09-04T23:28:24.359Z,59.94
2018-09-04T23:30:50.932Z,60.17
2018-09-04T23:33:20.578Z,60.50
2018-09-04T23:35:49.131Z,62.21
2018-09-04T23:38:15.774Z,62.29
2018-09-04T23:40:42.535Z,61.70
2018-09-04T23:43:09.159Z,62.10
2018-09-04T23:45:35.954Z,62.32
2018-09-04T23:48:04.453Z,61.29
2018-09-04T23:50:31.755Z,62.47
2018-09-04T23:52:59.336Z,63.01
2018-09-04T23:55:27.976Z,62.72
2018-09-04T23:57:55.065Z,63.77
